Time;durP1;ratioP1;P1;durP2;ratioP2;P2;SDS_P1;SDS_P2;PMS_P1;PMS_P2;Temp;Humidity;BMP_temperature;BMP_pressure;BME280_temperature;BME280_humidity;BME280_pressure;Samples;Min_cycle;Max_cycle;Signal;HPM_P1;HPM_P2
2023/12/14 00:01:19;;;;;;;25.25;13.00;;;;;;;;;;5054650;28;20021;-90
2023/12/14 00:03:44;;;;;;;27.60;12.27;;;;;;;;;;5055815;28;20025;-93
2023/12/14 00:06:11;;;;;;;27.60;13.00;;;;;;;;;;5053871;28;20033;-91
2023/12/14 00:08:36;;;;;;;25.10;11.95;;;;;;;;;;5053930;28;20055;-90
2023/12/14 00:11:08;;;;;;;25.70;12.03;;;;;;;;;;5055227;28;20384;-90
2023/12/14 00:13:34;;;;;;;20.98;11.52;;;;;;;;;;5036921;28;20009;-92
2023/12/14 00:15:59;;;;;;;23.67;11.13;;;;;;;;;;5057183;28;20028;-91
2023/12/14 00:18:24;;;;;;;23.73;11.23;;;;;;;;;;5047157;28;20032;-91
2023/12/14 00:20:50;;;;;;;23.70;10.87;;;;;;;;;;5054883;28;20091;-90
2023/12/14 00:23:15;;;;;;;22.23;10.77;;;;;;;;;;5055016;28;20024;-90
2023/12/14 00:25:40;;;;;;;23.43;11.27;;;;;;;;;;5054627;28;20059;-91
2023/12/14 00:28:05;;;;;;;22.87;11.30;;;;;;;;;;5054061;28;20642;-89
2023/12/14 00:30:30;;;;;;;24.63;12.43;;;;;;;;;;5053474;28;20472;-91
2023/12/14 00:32:56;;;;;;;26.07;12.40;;;;;;;;;;5036829;28;20021;-91
2023/12/14 00:35:21;;;;;;;30.00;12.40;;;;;;;;;;5063712;28;20031;-91
2023/12/14 00:37:46;;;;;;;26.97;12.37;;;;;;;;;;5053432;28;20610;-91
2023/12/14 00:40:11;;;;;;;29.40;12.40;;;;;;;;;;5054488;28;20036;-90
2023/12/14 00:42:37;;;;;;;26.35;12.35;;;;;;;;;;5054587;28;20037;-91
2023/12/14 00:45:02;;;;;;;31.17;13.40;;;;;;;;;;5062753;28;20032;-91
2023/12/14 00:47:27;;;;;;;29.87;13.87;;;;;;;;;;5062653;28;20730;-91
2023/12/14 00:49:53;;;;;;;36.17;15.33;;;;;;;;;;5054031;28;20058;-92
2023/12/14 00:52:18;;;;;;;35.58;14.82;;;;;;;;;;5053809;28;20051;-91
2023/12/14 00:54:43;;;;;;;35.60;15.13;;;;;;;;;;5054148;28;20079;-91
2023/12/14 00:57:08;;;;;;;39.00;15.70;;;;;;;;;;5054127;28;20119;-92
2023/12/14 00:59:34;;;;;;;37.60;15.43;;;;;;;;;;5055571;28;20569;-91
2023/12/14 01:01:59;;;;;;;41.03;16.20;;;;;;;;;;5065184;28;20055;-91
2023/12/14 01:04:24;;;;;;;42.50;16.90;;;;;;;;;;5062658;28;20045;-91
2023/12/14 01:06:49;;;;;;;47.63;15.77;;;;;;;;;;5067093;28;20392;-91
2023/12/14 01:09:14;;;;;;;43.80;16.63;;;;;;;;;;5054356;28;20048;-92
2023/12/14 01:11:42;;;;;;;44.07;16.27;;;;;;;;;;5055046;28;20025;-90
2023/12/14 01:14:07;;;;;;;42.67;16.40;;;;;;;;;;5056906;28;20028;-93
2023/12/14 01:16:32;;;;;;;39.17;15.07;;;;;;;;;;5052907;28;20469;-92
2023/12/14 01:18:57;;;;;;;42.07;15.43;;;;;;;;;;5052588;28;20078;-91
2023/12/14 01:21:23;;;;;;;40.23;15.37;;;;;;;;;;5054935;28;20017;-92
2023/12/14 01:23:49;;;;;;;39.93;15.10;;;;;;;;;;5054748;28;20020;-92
2023/12/14 01:26:14;;;;;;;36.42;14.77;;;;;;;;;;5053674;28;20020;-92
2023/12/14 01:28:39;;;;;;;36.70;14.33;;;;;;;;;;5054492;28;20029;-91
2023/12/14 01:31:04;;;;;;;45.63;14.83;;;;;;;;;;5054949;28;20032;-91
2023/12/14 01:33:29;;;;;;;39.73;14.77;;;;;;;;;;5055319;28;20039;-92
2023/12/14 01:35:55;;;;;;;36.63;14.10;;;;;;;;;;5064065;28;20102;-93
2023/12/14 01:38:20;;;;;;;37.23;14.30;;;;;;;;;;5054593;28;20712;-93
2023/12/14 01:40:45;;;;;;;30.73;13.17;;;;;;;;;;5053781;28;20421;-92
2023/12/14 01:43:11;;;;;;;28.50;13.17;;;;;;;;;;5055728;28;20033;-92
2023/12/14 01:45:37;;;;;;;33.22;13.63;;;;;;;;;;5054225;28;20025;-92
2023/12/14 01:48:02;;;;;;;29.73;12.40;;;;;;;;;;5055160;28;20025;-91
2023/12/14 01:50:27;;;;;;;28.65;12.55;;;;;;;;;;5055692;28;20028;-91
2023/12/14 01:52:52;;;;;;;31.67;12.47;;;;;;;;;;5055540;28;20029;-91
2023/12/14 01:55:18;;;;;;;30.33;12.07;;;;;;;;;;5062124;28;20384;-92
2023/12/14 01:57:43;;;;;;;27.33;11.97;;;;;;;;;;5059565;28;20591;-92
2023/12/14 02:00:13;;;;;;;25.93;12.77;;;;;;;;;;5054786;28;20044;-92
2023/12/14 02:02:40;;;;;;;29.67;12.03;;;;;;;;;;5055621;28;20218;-93
2023/12/14 02:05:05;;;;;;;27.75;11.93;;;;;;;;;;5054923;28;20430;-93
2023/12/14 02:07:30;;;;;;;26.77;11.80;;;;;;;;;;5056058;28;20048;-92
2023/12/14 02:09:55;;;;;;;26.67;12.40;;;;;;;;;;5054327;28;20040;-92
2023/12/14 02:12:20;;;;;;;26.60;12.47;;;;;;;;;;5056308;28;20400;-93
2023/12/14 02:14:51;;;;;;;29.37;13.10;;;;;;;;;;5054761;28;20362;-94
2023/12/14 02:17:18;;;;;;;27.20;12.68;;;;;;;;;;5055307;28;20028;-92
2023/12/14 02:19:43;;;;;;;33.53;13.45;;;;;;;;;;5037917;28;20120;-91
2023/12/14 02:22:08;;;;;;;28.93;12.57;;;;;;;;;;5055440;28;20044;-92
2023/12/14 02:24:34;;;;;;;27.47;12.67;;;;;;;;;;5055369;28;20445;-93
2023/12/14 02:26:59;;;;;;;29.53;13.20;;;;;;;;;;5055670;28;20116;-92
2023/12/14 02:29:24;;;;;;;32.13;13.53;;;;;;;;;;5055902;28;20033;-92
2023/12/14 02:31:55;;;;;;;26.40;12.70;;;;;;;;;;5055711;28;20024;-93
2023/12/14 02:34:21;;;;;;;24.20;11.77;;;;;;;;;;5057008;28;20074;-92
2023/12/14 02:36:46;;;;;;;25.73;11.97;;;;;;;;;;5056369;28;20025;-93
2023/12/14 02:39:11;;;;;;;23.87;11.67;;;;;;;;;;5057070;28;20282;-91
2023/12/14 02:41:36;;;;;;;24.97;13.60;;;;;;;;;;5056368;28;20095;-92
2023/12/14 02:44:01;;;;;;;26.40;12.37;;;;;;;;;;5057025;28;20024;-92
2023/12/14 02:46:27;;;;;;;24.23;11.13;;;;;;;;;;5079516;28;20020;-91
2023/12/14 02:48:52;;;;;;;25.77;11.60;;;;;;;;;;5063408;28;20449;-93
2023/12/14 02:51:17;;;;;;;31.33;12.10;;;;;;;;;;5062684;28;20036;-91
2023/12/14 02:53:42;;;;;;;23.27;11.27;;;;;;;;;;5064307;28;20028;-92
2023/12/14 02:56:09;;;;;;;27.17;11.47;;;;;;;;;;5065665;28;20059;-93
2023/12/14 02:58:34;;;;;;;29.48;11.98;;;;;;;;;;5055915;28;20027;-92
2023/12/14 03:00:59;;;;;;;22.07;10.97;;;;;;;;;;5054226;28;20065;-92
2023/12/14 03:03:26;;;;;;;23.93;11.47;;;;;;;;;;5054528;28;20032;-91
2023/12/14 03:05:51;;;;;;;27.25;11.73;;;;;;;;;;5060452;28;20028;-91
2023/12/14 03:08:16;;;;;;;27.40;12.20;;;;;;;;;;5055846;28;20033;-93
2023/12/14 03:10:41;;;;;;;27.87;11.23;;;;;;;;;;5055732;28;20104;-94
2023/12/14 03:13:06;;;;;;;25.60;12.13;;;;;;;;;;5056747;28;20456;-93
2023/12/14 03:15:31;;;;;;;26.10;11.63;;;;;;;;;;5064132;28;20031;-92
2023/12/14 03:17:57;;;;;;;23.47;11.33;;;;;;;;;;5076382;28;20019;-93
2023/12/14 03:20:22;;;;;;;25.43;11.87;;;;;;;;;;5072514;28;20139;-93
2023/12/14 03:22:48;;;;;;;26.83;11.87;;;;;;;;;;5055885;28;20507;-92
2023/12/14 03:25:13;;;;;;;22.20;11.27;;;;;;;;;;5056615;28;20021;-94
2023/12/14 03:27:38;;;;;;;24.23;11.90;;;;;;;;;;5039176;28;20029;-94
2023/12/14 03:30:07;;;;;;;26.50;11.50;;;;;;;;;;5035914;28;20021;-91
2023/12/14 03:32:33;;;;;;;24.67;11.83;;;;;;;;;;5055257;28;20453;-93
2023/12/14 03:34:58;;;;;;;24.07;12.87;;;;;;;;;;5055177;28;20291;-94
2023/12/14 03:37:24;;;;;;;23.13;11.90;;;;;;;;;;5057043;28;20108;-93
2023/12/14 03:39:49;;;;;;;26.97;12.23;;;;;;;;;;5056858;28;20044;-93
2023/12/14 03:42:14;;;;;;;25.63;11.80;;;;;;;;;;5056570;28;20314;-92
2023/12/14 03:44:40;;;;;;;24.73;12.40;;;;;;;;;;5054119;28;20650;-90
2023/12/14 03:47:05;;;;;;;24.23;12.23;;;;;;;;;;5051865;28;20032;-92
2023/12/14 03:49:30;;;;;;;25.23;12.70;;;;;;;;;;5050484;28;20045;-91
2023/12/14 03:51:55;;;;;;;24.27;12.33;;;;;;;;;;5049991;28;20431;-90
2023/12/14 03:54:20;;;;;;;25.70;13.23;;;;;;;;;;5055066;28;20435;-92
2023/12/14 03:56:45;;;;;;;25.13;12.60;;;;;;;;;;5052729;28;20527;-90
2023/12/14 03:59:11;;;;;;;26.80;13.37;;;;;;;;;;5034591;28;20035;-90
2023/12/14 04:01:39;;;;;;;25.30;12.47;;;;;;;;;;5050003;28;20045;-90
2023/12/14 04:04:04;;;;;;;24.10;12.00;;;;;;;;;;5055072;28;20017;-90
2023/12/14 04:06:29;;;;;;;21.10;11.40;;;;;;;;;;5053179;28;20934;-90
2023/12/14 04:08:55;;;;;;;26.20;12.70;;;;;;;;;;5043756;28;20029;-90
2023/12/14 04:11:20;;;;;;;25.17;12.90;;;;;;;;;;5052281;28;20028;-90
2023/12/14 04:13:45;;;;;;;26.40;12.87;;;;;;;;;;5074856;28;20028;-90
2023/12/14 04:16:10;;;;;;;25.97;12.37;;;;;;;;;;5072681;28;20120;-91
2023/12/14 04:18:37;;;;;;;24.07;13.00;;;;;;;;;;5055404;28;20025;-90
2023/12/14 04:21:03;;;;;;;26.05;11.68;;;;;;;;;;5041233;28;20570;-90
2023/12/14 04:23:28;;;;;;;23.83;12.17;;;;;;;;;;5055065;28;20021;-91
2023/12/14 04:25:53;;;;;;;23.07;12.17;;;;;;;;;;5060418;28;20021;-92
2023/12/14 04:28:18;;;;;;;24.30;12.33;;;;;;;;;;5049168;28;20022;-94
2023/12/14 04:30:45;;;;;;;21.27;12.00;;;;;;;;;;5050197;28;20424;-96
2023/12/14 04:33:11;;;;;;;23.77;12.45;;;;;;;;;;5047059;28;20350;-92
2023/12/14 04:35:36;;;;;;;24.83;13.15;;;;;;;;;;5048937;28;20017;-93
2023/12/14 04:38:02;;;;;;;21.20;11.47;;;;;;;;;;5059402;28;20503;-93
2023/12/14 04:40:27;;;;;;;22.03;12.27;;;;;;;;;;5041568;28;20017;-92
2023/12/14 04:42:52;;;;;;;22.00;11.80;;;;;;;;;;5052009;28;20051;-92
2023/12/14 04:45:19;;;;;;;20.60;11.23;;;;;;;;;;5039378;28;20032;-92
2023/12/14 04:47:44;;;;;;;23.77;11.98;;;;;;;;;;5021271;28;20034;-93
2023/12/14 04:50:09;;;;;;;21.23;12.33;;;;;;;;;;5046886;28;20365;-93
2023/12/14 04:52:34;;;;;;;19.73;10.80;;;;;;;;;;5058736;28;20021;-94
2023/12/14 04:54:59;;;;;;;22.00;12.07;;;;;;;;;;5059169;28;20017;-95
2023/12/14 04:57:25;;;;;;;21.47;11.97;;;;;;;;;;5060097;28;20062;-93
2023/12/14 04:59:50;;;;;;;22.80;12.40;;;;;;;;;;5045166;28;20024;-92
2023/12/14 05:02:15;;;;;;;21.40;11.00;;;;;;;;;;5070729;28;20032;-89
2023/12/14 05:04:40;;;;;;;25.17;12.40;;;;;;;;;;5057537;28;20039;-91
2023/12/14 05:07:05;;;;;;;20.87;12.17;;;;;;;;;;5059695;28;20070;-91
2023/12/14 05:09:31;;;;;;;21.80;12.77;;;;;;;;;;5058069;28;20408;-91
2023/12/14 05:11:56;;;;;;;26.77;13.53;;;;;;;;;;5054951;28;20021;-91
2023/12/14 05:14:21;;;;;;;27.83;14.33;;;;;;;;;;5061160;28;20025;-92
2023/12/14 05:16:47;;;;;;;22.02;12.27;;;;;;;;;;5064283;28;20055;-93
2023/12/14 05:19:15;;;;;;;23.47;12.20;;;;;;;;;;5064827;28;20033;-93
2023/12/14 05:21:40;;;;;;;21.60;11.73;;;;;;;;;;5063221;28;20028;-92
2023/12/14 05:24:05;;;;;;;21.10;11.40;;;;;;;;;;5063165;28;20025;-92
2023/12/14 05:26:30;;;;;;;25.40;11.97;;;;;;;;;;5057835;28;20037;-92
2023/12/14 05:28:56;;;;;;;22.50;11.80;;;;;;;;;;5058831;28;20040;-92
2023/12/14 05:31:22;;;;;;;24.00;12.77;;;;;;;;;;5057763;28;20032;-92
2023/12/14 05:33:47;;;;;;;21.48;12.35;;;;;;;;;;5057524;28;20018;-90
2023/12/14 05:36:13;;;;;;;23.97;13.50;;;;;;;;;;5045746;28;20025;-91
2023/12/14 05:38:38;;;;;;;25.33;12.27;;;;;;;;;;5057228;28;20017;-93
2023/12/14 05:41:04;;;;;;;24.63;12.30;;;;;;;;;;5062140;28;20033;-93
2023/12/14 05:43:29;;;;;;;23.33;12.70;;;;;;;;;;5047606;28;20045;-92
2023/12/14 05:45:54;;;;;;;23.37;12.43;;;;;;;;;;5061435;28;20412;-93
2023/12/14 05:48:20;;;;;;;23.77;12.77;;;;;;;;;;5061390;28;20027;-93
2023/12/14 05:50:46;;;;;;;21.60;12.10;;;;;;;;;;5063215;28;20035;-93
2023/12/14 05:53:12;;;;;;;26.10;13.00;;;;;;;;;;5057482;28;20055;-93
2023/12/14 05:55:39;;;;;;;24.33;12.20;;;;;;;;;;5057293;28;20465;-94
2023/12/14 05:58:21;;;;;;;;;;;;;;;;;;;;;
2023/12/14 06:00:47;;;;;;;24.38;12.77;;;;;;;;;;5079641;23;20777;-92
2023/12/14 06:03:19;;;;;;;24.77;12.67;;;;;;;;;;5054661;28;20037;-92
2023/12/14 06:05:53;;;;;;;22.48;12.07;;;;;;;;;;5045939;28;20021;-94
2023/12/14 06:08:44;;;;;;;23.38;12.65;;;;;;;;;;5045701;28;20080;-92
2023/12/14 06:11:09;;;;;;;23.48;12.82;;;;;;;;;;5042360;28;20018;-91
2023/12/14 06:13:36;;;;;;;23.53;13.07;;;;;;;;;;5037394;28;20350;-91
2023/12/14 06:16:02;;;;;;;23.65;12.27;;;;;;;;;;5041558;28;20108;-93
2023/12/14 06:18:28;;;;;;;22.90;12.30;;;;;;;;;;5029656;28;20017;-94
2023/12/14 06:20:54;;;;;;;22.63;12.43;;;;;;;;;;5020569;28;20711;-94
2023/12/14 06:23:19;;;;;;;23.48;12.63;;;;;;;;;;5035994;28;20017;-92
2023/12/14 06:25:44;;;;;;;20.83;11.43;;;;;;;;;;5036949;28;20024;-94
2023/12/14 06:28:10;;;;;;;23.97;13.50;;;;;;;;;;5036624;28;20350;-93
2023/12/14 06:30:35;;;;;;;23.83;12.60;;;;;;;;;;5033265;28;20032;-90
2023/12/14 06:33:00;;;;;;;23.33;12.40;;;;;;;;;;5028409;28;20044;-95
2023/12/14 06:35:25;;;;;;;21.03;12.23;;;;;;;;;;5036197;28;20025;-95
2023/12/14 06:37:50;;;;;;;20.17;11.60;;;;;;;;;;5006407;28;20061;-94
2023/12/14 06:40:16;;;;;;;21.83;12.97;;;;;;;;;;5020818;28;20097;-95
2023/12/14 06:42:42;;;;;;;21.13;12.63;;;;;;;;;;5035444;28;20420;-94
2023/12/14 06:45:07;;;;;;;22.50;12.38;;;;;;;;;;5012872;28;20018;-95
2023/12/14 06:47:33;;;;;;;20.17;12.05;;;;;;;;;;4997972;28;20117;-94
2023/12/14 06:49:58;;;;;;;24.57;13.33;;;;;;;;;;5014310;28;20053;-96
2023/12/14 06:52:23;;;;;;;21.63;12.40;;;;;;;;;;5016719;28;20026;-95
2023/12/14 06:54:50;;;;;;;22.63;12.10;;;;;;;;;;5034584;28;20105;-95
2023/12/14 06:57:16;;;;;;;23.70;12.43;;;;;;;;;;5020845;28;20048;-95
2023/12/14 06:59:41;;;;;;;25.43;13.10;;;;;;;;;;5041544;28;20018;-95
2023/12/14 07:02:07;;;;;;;22.43;12.60;;;;;;;;;;5038167;28;20493;-91
2023/12/14 07:04:32;;;;;;;24.48;12.18;;;;;;;;;;5015917;28;20021;-95
2023/12/14 07:06:59;;;;;;;21.37;12.40;;;;;;;;;;5013422;28;20018;-95
2023/12/14 07:09:25;;;;;;;27.40;12.67;;;;;;;;;;5011556;28;20033;-95
2023/12/14 07:11:50;;;;;;;20.77;11.80;;;;;;;;;;5013518;28;20359;-95
2023/12/14 07:14:15;;;;;;;27.27;13.50;;;;;;;;;;5014799;28;20033;-95
2023/12/14 07:16:41;;;;;;;26.33;12.93;;;;;;;;;;5006251;28;20033;-93
2023/12/14 07:19:06;;;;;;;29.55;14.13;;;;;;;;;;5030816;28;20021;-92
2023/12/14 07:21:31;;;;;;;26.90;13.23;;;;;;;;;;5030575;28;20040;-91
2023/12/14 07:23:57;;;;;;;32.00;13.40;;;;;;;;;;5016572;28;20022;-90
2023/12/14 07:26:22;;;;;;;35.80;14.97;;;;;;;;;;5010682;28;20743;-91
2023/12/14 07:28:48;;;;;;;38.80;14.83;;;;;;;;;;4995556;28;20021;-91
2023/12/14 07:31:13;;;;;;;33.33;14.98;;;;;;;;;;5082465;23;20044;-90
2023/12/14 07:33:39;;;;;;;30.73;13.13;;;;;;;;;;5030397;28;20025;-93
2023/12/14 07:36:05;;;;;;;34.27;13.80;;;;;;;;;;5017058;28;20020;-91
2023/12/14 07:38:30;;;;;;;33.17;14.83;;;;;;;;;;5032002;28;20374;-90
2023/12/14 07:40:56;;;;;;;28.67;13.33;;;;;;;;;;5033791;28;20045;-89
2023/12/14 07:43:21;;;;;;;28.07;12.90;;;;;;;;;;5034572;28;20087;-91
2023/12/14 07:45:46;;;;;;;27.23;12.40;;;;;;;;;;5032352;28;20268;-89
2023/12/14 07:48:12;;;;;;;30.60;13.67;;;;;;;;;;5031204;28;20034;-90
2023/12/14 07:50:38;;;;;;;26.90;12.47;;;;;;;;;;5032254;28;20022;-89
2023/12/14 07:53:03;;;;;;;25.73;13.15;;;;;;;;;;5031988;28;20101;-87
2023/12/14 07:55:29;;;;;;;26.50;12.60;;;;;;;;;;5033617;28;20104;-88
2023/12/14 07:57:54;;;;;;;24.80;11.40;;;;;;;;;;5032736;28;20381;-87
2023/12/14 08:00:19;;;;;;;23.17;11.20;;;;;;;;;;5030181;28;20024;-88
2023/12/14 08:02:44;;;;;;;27.50;11.93;;;;;;;;;;5031499;28;20021;-90
2023/12/14 08:05:09;;;;;;;24.57;12.23;;;;;;;;;;5031051;28;20357;-90
2023/12/14 08:07:34;;;;;;;23.00;12.40;;;;;;;;;;5032907;28;20052;-88
2023/12/14 08:10:00;;;;;;;20.13;9.77;;;;;;;;;;5032079;28;20041;-90
2023/12/14 08:12:26;;;;;;;25.40;10.70;;;;;;;;;;5032819;28;20021;-89
2023/12/14 08:14:51;;;;;;;19.77;10.97;;;;;;;;;;5032208;28;20045;-90
2023/12/14 08:17:17;;;;;;;28.47;15.90;;;;;;;;;;5022902;28;20313;-89
2023/12/14 08:19:42;;;;;;;53.97;26.70;;;;;;;;;;5016213;28;20111;-88
2023/12/14 08:22:11;;;;;;;51.30;26.83;;;;;;;;;;5031664;28;20032;-87
2023/12/14 08:24:36;;;;;;;23.42;16.10;;;;;;;;;;5013189;28;20552;-90
2023/12/14 08:27:01;;;;;;;17.57;12.50;;;;;;;;;;5012066;28;20025;-90
2023/12/14 08:29:26;;;;;;;21.67;12.77;;;;;;;;;;5021032;28;20044;-88
2023/12/14 08:31:52;;;;;;;17.20;9.27;;;;;;;;;;5023742;28;20036;-87
2023/12/14 08:34:17;;;;;;;19.13;9.40;;;;;;;;;;5031991;28;20540;-89
2023/12/14 08:36:42;;;;;;;15.13;8.93;;;;;;;;;;5030667;28;20014;-86
2023/12/14 08:39:08;;;;;;;22.10;10.00;;;;;;;;;;5031976;28;20342;-85
2023/12/14 08:41:33;;;;;;;17.63;9.40;;;;;;;;;;5031373;28;20018;-86
2023/12/14 08:43:58;;;;;;;19.33;9.97;;;;;;;;;;5031941;28;20432;-86
2023/12/14 08:46:24;;;;;;;18.80;10.33;;;;;;;;;;5029843;28;20025;-87
2023/12/14 08:48:50;;;;;;;14.48;8.70;;;;;;;;;;5030503;28;20077;-87
2023/12/14 08:51:15;;;;;;;11.90;7.45;;;;;;;;;;5030325;28;20555;-87
2023/12/14 08:53:41;;;;;;;18.80;8.20;;;;;;;;;;5031521;28;20116;-86
2023/12/14 08:56:08;;;;;;;17.13;8.40;;;;;;;;;;5031269;28;20017;-88
2023/12/14 08:58:33;;;;;;;17.17;8.80;;;;;;;;;;5045503;28;20036;-85
2023/12/14 09:00:58;;;;;;;15.47;8.40;;;;;;;;;;5031522;28;20033;-86
2023/12/14 09:03:26;;;;;;;13.43;8.43;;;;;;;;;;5029909;28;20026;-87
2023/12/14 09:05:51;;;;;;;14.77;8.57;;;;;;;;;;5031027;28;20543;-90
2023/12/14 09:08:16;;;;;;;12.80;7.13;;;;;;;;;;5028846;28;20029;-85
2023/12/14 09:10:42;;;;;;;16.33;8.97;;;;;;;;;;5029234;28;20045;-89
2023/12/14 09:13:07;;;;;;;11.63;7.87;;;;;;;;;;5014178;28;20017;-88
2023/12/14 09:15:32;;;;;;;18.63;9.33;;;;;;;;;;5015360;28;20049;-91
2023/12/14 09:17:58;;;;;;;14.03;7.77;;;;;;;;;;5026463;28;20080;-89
2023/12/14 09:20:23;;;;;;;38.17;13.50;;;;;;;;;;5013086;28;20042;-88
2023/12/14 09:22:48;;;;;;;27.27;12.20;;;;;;;;;;5022833;28;20033;-88
2023/12/14 09:25:13;;;;;;;17.57;8.70;;;;;;;;;;5017226;28;20309;-89
2023/12/14 09:27:38;;;;;;;14.48;8.15;;;;;;;;;;5032302;28;20013;-88
2023/12/14 09:30:04;;;;;;;15.07;8.60;;;;;;;;;;5036651;28;20044;-89
2023/12/14 09:32:30;;;;;;;11.70;8.00;;;;;;;;;;5030940;28;20022;-89
2023/12/14 09:34:57;;;;;;;15.77;8.25;;;;;;;;;;5017485;28;20147;-87
2023/12/14 09:37:22;;;;;;;13.20;7.97;;;;;;;;;;5038824;28;20028;-87
2023/12/14 09:39:47;;;;;;;13.23;7.63;;;;;;;;;;5030777;28;20022;-87
2023/12/14 09:42:16;;;;;;;12.57;7.97;;;;;;;;;;5012341;28;20021;-88
2023/12/14 09:44:42;;;;;;;13.50;7.95;;;;;;;;;;5031261;28;20021;-88
2023/12/14 09:47:07;;;;;;;12.47;7.67;;;;;;;;;;5030499;28;20032;-88
2023/12/14 09:49:32;;;;;;;10.98;7.65;;;;;;;;;;5030537;28;20026;-87
2023/12/14 09:51:58;;;;;;;13.27;7.90;;;;;;;;;;5014173;28;20025;-89
2023/12/14 09:54:23;;;;;;;12.57;8.00;;;;;;;;;;5030972;28;20485;-90
2023/12/14 09:56:49;;;;;;;10.53;7.13;;;;;;;;;;5030796;28;20100;-88
2023/12/14 09:59:15;;;;;;;12.38;7.70;;;;;;;;;;5030897;28;20079;-88
2023/12/14 10:01:41;;;;;;;12.53;7.23;;;;;;;;;;5030074;28;20018;-86
2023/12/14 10:04:08;;;;;;;14.18;8.20;;;;;;;;;;5030354;28;20026;-89
2023/12/14 10:06:35;;;;;;;12.32;7.00;;;;;;;;;;5031798;28;20100;-90
2023/12/14 10:09:01;;;;;;;14.30;7.57;;;;;;;;;;5032561;28;20662;-91
2023/12/14 10:11:26;;;;;;;11.53;6.43;;;;;;;;;;5023783;28;20025;-88
2023/12/14 10:13:51;;;;;;;11.83;7.20;;;;;;;;;;5026602;28;20260;-91
2023/12/14 10:16:27;;;;;;;12.50;7.50;;;;;;;;;;5028954;28;20515;-88
2023/12/14 10:18:52;;;;;;;13.73;7.45;;;;;;;;;;5029468;28;20028;-89
2023/12/14 10:21:17;;;;;;;15.90;10.70;;;;;;;;;;5026053;28;20397;-89
2023/12/14 10:23:46;;;;;;;17.23;9.40;;;;;;;;;;5011545;28;20504;-89
2023/12/14 10:26:11;;;;;;;14.57;9.03;;;;;;;;;;5026046;28;20048;-89
2023/12/14 10:28:39;;;;;;;12.25;7.32;;;;;;;;;;5029888;28;20469;-90
2023/12/14 10:31:05;;;;;;;10.23;7.40;;;;;;;;;;5030528;28;20562;-90
2023/12/14 10:33:30;;;;;;;12.68;7.28;;;;;;;;;;5035761;28;20100;-89
2023/12/14 10:35:57;;;;;;;10.10;6.97;;;;;;;;;;5031975;28;20093;-89
2023/12/14 10:38:23;;;;;;;10.35;7.22;;;;;;;;;;5032508;28;20461;-92
2023/12/14 10:40:48;;;;;;;11.75;7.18;;;;;;;;;;5028235;28;20484;-90
2023/12/14 10:43:15;;;;;;;9.67;6.53;;;;;;;;;;5028388;28;20095;-89
2023/12/14 10:45:43;;;;;;;11.57;7.25;;;;;;;;;;5068039;23;20052;-90
2023/12/14 10:48:08;;;;;;;10.73;6.75;;;;;;;;;;5050029;28;20025;-90
2023/12/14 10:50:36;;;;;;;10.03;6.53;;;;;;;;;;5051606;28;20400;-96
2023/12/14 10:53:04;;;;;;;9.38;6.18;;;;;;;;;;5038585;28;20044;-91
2023/12/14 10:55:30;;;;;;;9.27;5.93;;;;;;;;;;5048457;28;20005;-89
2023/12/14 10:57:56;;;;;;;10.90;5.70;;;;;;;;;;5039934;28;20492;-91
2023/12/14 11:00:22;;;;;;;7.23;5.40;;;;;;;;;;5036143;28;20032;-93
2023/12/14 11:02:47;;;;;;;9.53;5.63;;;;;;;;;;5047247;28;20423;-94
2023/12/14 11:05:15;;;;;;;9.57;5.30;;;;;;;;;;5260502;22;20323;-91
2023/12/14 11:07:46;;;;;;;9.57;6.03;;;;;;;;;;5032617;28;20105;-92
2023/12/14 11:13:17;;;;;;;11.60;6.73;;;;;;;;;;5051352;28;20044;-91
2023/12/14 11:19:21;;;;;;;10.40;5.78;;;;;;;;;;4988006;28;20400;-91
2023/12/14 11:21:46;;;;;;;12.48;6.10;;;;;;;;;;5026458;28;20025;-91
2023/12/14 11:24:12;;;;;;;11.13;6.13;;;;;;;;;;5021540;28;20072;-90
2023/12/14 11:26:39;;;;;;;11.25;6.00;;;;;;;;;;5019341;28;20116;-92
2023/12/14 11:29:05;;;;;;;10.73;6.40;;;;;;;;;;5029842;28;20305;-89
2023/12/14 11:31:31;;;;;;;12.07;5.93;;;;;;;;;;5021612;28;20284;-88
2023/12/14 11:33:56;;;;;;;10.35;5.70;;;;;;;;;;5032355;28;20044;-89
2023/12/14 11:36:21;;;;;;;8.00;6.07;;;;;;;;;;5031999;28;20105;-89
2023/12/14 11:38:47;;;;;;;12.97;6.73;;;;;;;;;;5026121;28;20033;-89
2023/12/14 11:41:13;;;;;;;12.32;6.85;;;;;;;;;;5027961;28;20108;-89
2023/12/14 11:43:39;;;;;;;8.53;5.80;;;;;;;;;;5030531;28;20021;-89
2023/12/14 11:46:04;;;;;;;12.35;6.63;;;;;;;;;;5029553;28;20022;-89
2023/12/14 11:48:29;;;;;;;10.10;6.40;;;;;;;;;;5024422;28;20079;-89
2023/12/14 11:50:54;;;;;;;10.73;6.73;;;;;;;;;;5019655;28;20020;-89
2023/12/14 11:53:20;;;;;;;10.90;6.23;;;;;;;;;;5030443;28;20042;-89
2023/12/14 11:55:45;;;;;;;10.70;6.90;;;;;;;;;;5032935;28;20425;-90
2023/12/14 11:58:15;;;;;;;13.57;6.93;;;;;;;;;;5033106;28;20031;-90
2023/12/14 12:00:41;;;;;;;10.10;7.40;;;;;;;;;;5023515;28;20366;-90
2023/12/14 12:03:17;;;;;;;9.95;6.20;;;;;;;;;;5031101;28;20029;-89
2023/12/14 12:05:43;;;;;;;9.35;6.05;;;;;;;;;;5033088;28;20045;-91
2023/12/14 12:08:10;;;;;;;11.20;7.35;;;;;;;;;;5032991;28;20025;-90
2023/12/14 12:10:36;;;;;;;9.07;5.97;;;;;;;;;;5010464;28;20037;-91
2023/12/14 12:13:06;;;;;;;10.77;6.72;;;;;;;;;;5014720;28;20064;-90
2023/12/14 12:15:33;;;;;;;8.95;6.28;;;;;;;;;;5024199;28;20014;-92
2023/12/14 12:17:58;;;;;;;10.27;6.07;;;;;;;;;;5021367;28;20064;-92
2023/12/14 12:20:25;;;;;;;9.30;6.23;;;;;;;;;;5020290;28;20026;-92
2023/12/14 12:22:50;;;;;;;10.57;6.20;;;;;;;;;;5020570;28;20029;-91
2023/12/14 12:25:16;;;;;;;7.97;6.07;;;;;;;;;;5016042;28;20022;-91
2023/12/14 12:27:41;;;;;;;9.50;6.13;;;;;;;;;;5018142;28;20034;-92
2023/12/14 12:30:06;;;;;;;8.27;6.23;;;;;;;;;;5014797;28;20396;-91
2023/12/14 12:32:32;;;;;;;9.52;6.55;;;;;;;;;;5013958;28;20013;-94
2023/12/14 12:34:57;;;;;;;9.20;6.00;;;;;;;;;;5033666;28;20040;-92
2023/12/14 12:37:24;;;;;;;8.07;5.27;;;;;;;;;;5031181;28;20022;-91
2023/12/14 12:39:50;;;;;;;10.37;6.60;;;;;;;;;;5029260;28;20046;-94
2023/12/14 12:42:15;;;;;;;11.68;6.60;;;;;;;;;;5015677;28;20684;-94
2023/12/14 12:44:40;;;;;;;9.10;6.87;;;;;;;;;;5043152;28;20029;-96
2023/12/14 12:47:05;;;;;;;11.53;6.73;;;;;;;;;;5036596;28;20022;-95
2023/12/14 12:49:31;;;;;;;8.43;6.50;;;;;;;;;;5030807;28;20081;-94
2023/12/14 12:51:56;;;;;;;11.80;7.10;;;;;;;;;;5041285;28;20117;-94
2023/12/14 12:54:21;;;;;;;10.13;7.50;;;;;;;;;;5020645;28;20029;-94
2023/12/14 12:56:47;;;;;;;12.00;7.43;;;;;;;;;;5019231;28;20025;-94
2023/12/14 12:59:13;;;;;;;13.27;7.10;;;;;;;;;;5031781;28;20288;-95
2023/12/14 13:01:39;;;;;;;12.15;8.20;;;;;;;;;;5036272;28;20100;-94
2023/12/14 13:04:04;;;;;;;12.57;8.33;;;;;;;;;;5026790;28;20099;-93
2023/12/14 13:06:30;;;;;;;9.60;7.30;;;;;;;;;;5007060;28;20025;-96
2023/12/14 13:08:55;;;;;;;13.23;7.23;;;;;;;;;;5036710;28;20173;-90
2023/12/14 13:11:20;;;;;;;10.27;6.97;;;;;;;;;;5035150;28;20052;-91
2023/12/14 13:13:45;;;;;;;11.33;7.60;;;;;;;;;;5053794;28;20021;-92
2023/12/14 13:16:13;;;;;;;10.93;6.97;;;;;;;;;;5035368;28;20017;-90
2023/12/14 13:18:39;;;;;;;9.93;7.10;;;;;;;;;;5025223;28;20057;-90
2023/12/14 13:21:04;;;;;;;10.93;7.13;;;;;;;;;;5033775;28;20017;-90
2023/12/14 13:23:29;;;;;;;11.27;7.83;;;;;;;;;;5021255;28;20307;-94
2023/12/14 13:25:54;;;;;;;12.87;8.23;;;;;;;;;;5037477;28;20028;-93
2023/12/14 13:28:19;;;;;;;10.57;7.43;;;;;;;;;;5043400;28;20089;-92
2023/12/14 13:30:45;;;;;;;10.67;6.90;;;;;;;;;;5041920;28;20029;-92
2023/12/14 13:33:11;;;;;;;11.67;7.63;;;;;;;;;;5037878;28;20017;-92
2023/12/14 13:35:38;;;;;;;11.15;7.20;;;;;;;;;;5040599;28;20040;-93
2023/12/14 13:38:03;;;;;;;9.60;6.88;;;;;;;;;;5045095;28;20033;-92
2023/12/14 13:40:28;;;;;;;10.30;7.27;;;;;;;;;;5030917;28;20470;-93
2023/12/14 13:42:59;;;;;;;10.10;7.03;;;;;;;;;;5019176;28;20017;-91
2023/12/14 13:45:25;;;;;;;9.52;7.07;;;;;;;;;;5027636;28;20098;-92
2023/12/14 13:47:51;;;;;;;9.87;6.77;;;;;;;;;;5027526;28;20052;-93
2023/12/14 13:50:16;;;;;;;10.35;7.10;;;;;;;;;;5014378;28;20026;-92
2023/12/14 13:52:41;;;;;;;10.50;7.00;;;;;;;;;;5014836;28;20449;-93
2023/12/14 13:55:06;;;;;;;9.93;6.47;;;;;;;;;;5031868;28;20103;-91
2023/12/14 13:57:33;;;;;;;10.20;6.50;;;;;;;;;;5021779;28;20567;-91
2023/12/14 13:59:58;;;;;;;11.23;6.90;;;;;;;;;;5077183;22;20140;-90
2023/12/14 14:02:25;;;;;;;12.10;7.43;;;;;;;;;;5027809;28;20350;-92
2023/12/14 14:10:00;;;;;;;12.35;7.57;;;;;;;;;;5111194;22;19920;-93
2023/12/14 14:12:25;;;;;;;10.17;6.97;;;;;;;;;;5041679;28;20032;-92
2023/12/14 14:14:51;;;;;;;11.03;6.93;;;;;;;;;;5012056;28;20216;-92
2023/12/14 14:17:16;;;;;;;10.97;7.10;;;;;;;;;;5033168;28;20429;-93
2023/12/14 14:19:41;;;;;;;14.67;7.20;;;;;;;;;;5034121;28;20021;-93
2023/12/14 14:22:06;;;;;;;10.37;6.77;;;;;;;;;;5037473;28;20014;-93
2023/12/14 14:24:31;;;;;;;13.50;8.07;;;;;;;;;;5036852;28;20026;-93
2023/12/14 14:26:58;;;;;;;12.03;8.37;;;;;;;;;;5036693;28;20041;-95